Buckley Air Force Base Aurora US
ICAO: KBKF
IATA: BFK
Category: Medium
Scheduled Services: No

Elevation: 5662 ft
TransAlt. 18000 ft.

Airport Communications:
DENVER APP/DEP:128.45
ATIS:119.675
GND/CLNC DEL:121.6
PMSV METRO:22.845
PTD:37.22
TWR:121

KBKF Zoom In..

If you have problems with the map follow the link
https://www.worldairports.se/pages/airport.php?
ICAO=KBKF

Runways:

(A) RW 14 length 11006 ft width 150 ft
---- / hdg 140

(B) RW 32 length 11006 ft width 150 ft
ILS 109.70 / hdg 320

Location; KBKF
Day. 19 / Time. 22.22 Zulu
* Altimeter: 29.86
* Temperature: 13° c. 55.4°f.
* Wind from: 290° Speed 11 kn.
Dewpoint: 04° c.
Visibility: 10 Statute Miles.
Clouds: Scattered 4000 ft.
Clouds: Broken 6000 ft.
Clouds: Broken 12000 ft.
Clouds: Broken 2000 ft.

KBKF 192222Z 29011KT 10SM SCT040 BKN060 BKN120 BKN200 13/04 A2986 RMK AO2A SLP083


Wind From 290°
Speed 11 kn.

 
 
jpsmedia.com for Web Design worldairports.se 2019   terms of use